createdAt,value
2022-11-09T00:03:16.257Z,75
2022-11-09T00:07:18.294Z,75
2022-11-09T00:09:20.031Z,75
2022-11-09T00:13:23.337Z,75
2022-11-09T00:15:24.526Z,75
2022-11-09T00:19:26.685Z,75
2022-11-09T00:23:29.619Z,75
2022-11-09T00:25:30.679Z,75
2022-11-09T00:29:33.104Z,75
2022-11-09T00:31:34.404Z,75
2022-11-09T00:33:35.686Z,75
2022-11-09T00:35:36.848Z,75
2022-11-09T00:37:38.457Z,75
2022-11-09T00:40:40.610Z,75
2022-11-09T00:44:43.424Z,75
2022-11-09T00:46:44.626Z,75
2022-11-09T00:50:47.749Z,75
2022-11-09T00:52:48.892Z,75
2022-11-09T00:54:50.423Z,75
2022-11-09T00:56:52.100Z,75
2022-11-09T01:02:56.842Z,75
2022-11-09T01:04:57.820Z,75
2022-11-09T01:06:59.341Z,75
2022-11-09T01:09:00.707Z,75
2022-11-09T01:13:03.248Z,73
2022-11-09T01:15:05.094Z,73
2022-11-09T01:17:06.033Z,73
2022-11-09T01:19:07.768Z,73
2022-11-09T01:23:10.757Z,73
2022-11-09T01:25:12.402Z,73
2022-11-09T01:27:14.239Z,73
2022-11-09T01:29:15.478Z,73
2022-11-09T01:31:17.011Z,73
2022-11-09T01:33:19.065Z,73
2022-11-09T01:35:20.734Z,73
2022-11-09T01:37:22.073Z,73
2022-11-09T01:39:23.422Z,73
2022-11-09T01:41:24.414Z,73
2022-11-09T01:43:26.208Z,73
2022-11-09T01:45:27.998Z,73
2022-11-09T01:47:29.405Z,73
2022-11-09T01:49:30.456Z,73
2022-11-09T01:51:32.071Z,73
2022-11-09T01:55:35.645Z,73
2022-11-09T01:57:37.188Z,73
2022-11-09T02:01:39.420Z,73
2022-11-09T02:05:42.394Z,73
2022-11-09T02:07:43.638Z,73
2022-11-09T02:09:44.818Z,73
2022-11-09T02:11:46.307Z,73
2022-11-09T02:13:47.687Z,73
2022-11-09T02:15:49.124Z,73
2022-11-09T02:17:50.441Z,73
2022-11-09T02:19:52.161Z,73
2022-11-09T02:21:53.252Z,73
2022-11-09T02:23:54.639Z,73
2022-11-09T02:25:56.337Z,73
2022-11-09T02:27:57.782Z,73
2022-11-09T02:29:59.448Z,73
2022-11-09T02:32:00.634Z,73
2022-11-09T02:34:01.873Z,73
2022-11-09T02:38:05.447Z,73
2022-11-09T02:40:07.342Z,73
2022-11-09T02:42:10.169Z,73
2022-11-09T02:44:10.256Z,73
2022-11-09T02:48:13.455Z,73
2022-11-09T02:50:15.138Z,73
2022-11-09T02:52:16.619Z,73
2022-11-09T02:54:17.981Z,73
2022-11-09T02:58:21.398Z,73
2022-11-09T03:00:22.881Z,73
2022-11-09T03:02:23.934Z,73
2022-11-09T03:04:24.978Z,73
2022-11-09T03:10:28.925Z,73
2022-11-09T03:14:31.695Z,73
2022-11-09T03:16:33.107Z,73
2022-11-09T03:18:34.193Z,73
2022-11-09T03:20:35.189Z,73
2022-11-09T03:26:39.785Z,73
2022-11-09T03:28:41.120Z,73
2022-11-09T03:30:42.318Z,73
2022-11-09T03:32:48.103Z,73
2022-11-09T03:36:47.408Z,73
2022-11-09T03:40:50.172Z,73
2022-11-09T03:42:51.318Z,73
2022-11-09T03:46:54.755Z,73
2022-11-09T03:50:57.364Z,73
2022-11-09T03:52:58.829Z,73
2022-11-09T03:55:00.262Z,73
2022-11-09T03:57:01.589Z,73
2022-11-09T03:59:03.238Z,73
2022-11-09T04:01:04.986Z,73
2022-11-09T04:03:06.803Z,73
2022-11-09T04:05:07.971Z,73
2022-11-09T04:07:09.584Z,73
2022-11-09T04:09:11.316Z,73
2022-11-09T04:11:13.187Z,73
2022-11-09T04:13:14.879Z,73
2022-11-09T04:15:16.229Z,73
2022-11-09T04:19:19.391Z,73
2022-11-09T04:21:23.832Z,73
2022-11-09T04:23:22.377Z,73
2022-11-09T04:25:23.294Z,73
2022-11-09T04:29:26.628Z,73
2022-11-09T04:31:28.272Z,73
2022-11-09T04:33:29.401Z,73
2022-11-09T04:35:31.067Z,73
2022-11-09T04:37:32.269Z,73
2022-11-09T04:39:33.784Z,73
2022-11-09T04:41:35.105Z,73
2022-11-09T04:43:36.623Z,73
2022-11-09T04:45:37.708Z,73
2022-11-09T04:47:38.794Z,200
2022-11-09T04:49:40.106Z,200
2022-11-09T04:51:41.618Z,200
2022-11-09T04:53:42.934Z,200
2022-11-09T04:55:44.507Z,135
2022-11-09T04:57:45.849Z,135
2022-11-09T05:01:47.914Z,134
2022-11-09T05:03:49.134Z,135
2022-11-09T05:05:50.983Z,134
2022-11-09T05:07:52.158Z,140
2022-11-09T05:11:55.405Z,140
2022-11-09T05:13:56.886Z,140
2022-11-09T05:15:58.648Z,140
2022-11-09T05:18:00.435Z,140
2022-11-09T05:22:04.010Z,140
2022-11-09T05:24:05.251Z,140
2022-11-09T05:26:06.177Z,139
2022-11-09T05:28:09.537Z,139
2022-11-09T05:30:09.059Z,139
2022-11-09T05:32:10.742Z,139
2022-11-09T05:34:12.228Z,139
2022-11-09T05:36:13.392Z,139
2022-11-09T05:38:14.961Z,139
2022-11-09T05:40:16.374Z,138
2022-11-09T05:44:19.232Z,138
2022-11-09T05:46:20.855Z,138
2022-11-09T05:48:22.567Z,138
2022-11-09T05:50:23.895Z,138
2022-11-09T05:54:27.131Z,124
2022-11-09T05:56:28.286Z,124
2022-11-09T05:58:29.356Z,124
2022-11-09T06:00:30.310Z,124
2022-11-09T06:04:32.711Z,124
2022-11-09T06:06:34.205Z,124
2022-11-09T06:08:35.267Z,124
2022-11-09T06:10:37.051Z,124
2022-11-09T06:14:40.296Z,124
2022-11-09T06:16:41.826Z,124
2022-11-09T06:20:44.709Z,124
2022-11-09T06:22:46.173Z,124
2022-11-09T06:26:49.034Z,360
2022-11-09T06:30:51.920Z,360
2022-11-09T06:32:53.446Z,360
2022-11-09T06:34:55.024Z,360
2022-11-09T06:36:56.228Z,360
2022-11-09T06:38:57.880Z,360
2022-11-09T06:43:00.907Z,360
2022-11-09T06:47:03.083Z,360
2022-11-09T06:49:04.068Z,360
2022-11-09T06:53:06.641Z,360
2022-11-09T06:55:07.999Z,360
2022-11-09T06:57:08.939Z,360
2022-11-09T06:59:10.115Z,360
2022-11-09T07:01:11.308Z,360
2022-11-09T07:03:12.749Z,360
2022-11-09T07:05:14.223Z,360
2022-11-09T07:09:17.832Z,360
2022-11-09T07:11:18.901Z,360
2022-11-09T07:13:20.737Z,360
2022-11-09T07:15:21.604Z,360
2022-11-09T07:17:23.069Z,186
2022-11-09T07:19:24.755Z,195
2022-11-09T07:21:26.520Z,262
2022-11-09T07:24:11.369Z,269
2022-11-09T07:26:12.763Z,265
2022-11-09T07:30:15.592Z,266
2022-11-09T07:32:16.814Z,262
2022-11-09T07:34:18.236Z,151
2022-11-09T07:36:21.499Z,360
2022-11-09T07:40:22.105Z,168
2022-11-09T07:42:23.539Z,168
2022-11-09T07:44:25.061Z,168
2022-11-09T07:46:26.708Z,168
2022-11-09T07:52:30.735Z,174
2022-11-09T07:54:31.821Z,173
2022-11-09T07:56:32.720Z,183
2022-11-09T07:58:33.927Z,191
2022-11-09T08:02:36.559Z,191
2022-11-09T08:04:38.151Z,191
2022-11-09T08:06:39.584Z,191
2022-11-09T08:08:40.456Z,191
2022-11-09T08:12:43.200Z,191
2022-11-09T08:14:44.675Z,191
2022-11-09T08:18:48.027Z,191
2022-11-09T08:22:50.658Z,191
2022-11-09T08:24:52.311Z,191
2022-11-09T08:28:55.064Z,191
2022-11-09T08:32:57.985Z,191
2022-11-09T08:34:59.459Z,153
2022-11-09T08:37:00.559Z,153
2022-11-09T08:39:02.193Z,159
2022-11-09T08:41:03.847Z,163
2022-11-09T08:43:05.622Z,163
2022-11-09T08:45:06.670Z,163
2022-11-09T08:49:09.471Z,163
2022-11-09T08:51:11.292Z,163
2022-11-09T08:53:12.496Z,163
2022-11-09T08:55:13.671Z,141
2022-11-09T08:57:15.506Z,141
2022-11-09T09:01:18.040Z,163
2022-11-09T09:03:19.496Z,176
2022-11-09T09:05:21.257Z,146
2022-11-09T09:07:22.719Z,146
2022-11-09T09:11:25.224Z,146
2022-11-09T09:13:26.263Z,144
2022-11-09T09:15:27.633Z,144
2022-11-09T09:17:29.120Z,144
2022-11-09T09:19:30.213Z,144
2022-11-09T09:21:31.648Z,144
2022-11-09T09:23:32.703Z,144
2022-11-09T09:25:33.649Z,144
2022-11-09T09:27:35.031Z,144
2022-11-09T09:29:36.748Z,144
2022-11-09T09:31:38.383Z,144
2022-11-09T09:33:40.135Z,194
2022-11-09T09:35:41.088Z,194
2022-11-09T09:37:42.099Z,194
2022-11-09T09:39:43.122Z,194
2022-11-09T09:43:45.886Z,194
2022-11-09T09:45:47.435Z,194
2022-11-09T09:47:49.096Z,194
2022-11-09T09:49:50.602Z,194
2022-11-09T09:53:53.807Z,195
2022-11-09T09:55:54.962Z,195
2022-11-09T09:59:57.346Z,195
2022-11-09T10:04:00.422Z,195
2022-11-09T10:06:01.624Z,191
2022-11-09T10:08:02.762Z,168
2022-11-09T10:10:04.632Z,168
2022-11-09T10:16:08.655Z,181
2022-11-09T10:18:10.489Z,181
2022-11-09T10:20:12.091Z,181
2022-11-09T10:22:13.694Z,205
2022-11-09T10:24:15.536Z,204
2022-11-09T10:26:16.534Z,128
2022-11-09T10:28:18.175Z,360
2022-11-09T10:30:19.708Z,360
2022-11-09T10:32:20.656Z,360
2022-11-09T10:34:21.884Z,360
2022-11-09T10:36:22.985Z,360
2022-11-09T10:38:24.299Z,360
2022-11-09T10:42:27.780Z,360
2022-11-09T10:46:31.364Z,360
2022-11-09T10:48:32.673Z,360
2022-11-09T10:52:35.068Z,169
2022-11-09T10:56:53.511Z,170
2022-11-09T10:58:38.867Z,161
2022-11-09T11:02:41.913Z,186
2022-11-09T11:04:42.932Z,139
2022-11-09T11:06:44.224Z,144
2022-11-09T11:08:44.995Z,157
2022-11-09T11:10:46.023Z,210
2022-11-09T11:12:47.356Z,181
2022-11-09T11:14:48.402Z,185
2022-11-09T11:16:49.960Z,219
2022-11-09T11:18:51.257Z,222
2022-11-09T11:20:52.387Z,166
2022-11-09T11:24:55.031Z,150
2022-11-09T11:26:56.715Z,190
2022-11-09T11:30:58.907Z,182
2022-11-09T11:35:02.372Z,188
2022-11-09T11:37:04.815Z,212
2022-11-09T11:39:06.052Z,191
2022-11-09T11:41:07.418Z,230
2022-11-09T11:43:09.062Z,257
2022-11-09T11:47:12.428Z,232
2022-11-09T11:49:13.824Z,232
2022-11-09T11:51:14.802Z,232
2022-11-09T11:53:15.692Z,140
2022-11-09T11:55:17.001Z,226
2022-11-09T11:57:18.799Z,226
2022-11-09T11:59:19.768Z,233
2022-11-09T12:01:20.694Z,235
2022-11-09T12:03:22.372Z,235
2022-11-09T12:07:24.772Z,234
2022-11-09T12:09:25.952Z,234
2022-11-09T12:11:27.508Z,235
2022-11-09T12:13:28.399Z,257
2022-11-09T12:17:31.129Z,266
2022-11-09T12:19:35.506Z,215
2022-11-09T12:21:34.362Z,251
2022-11-09T12:23:35.496Z,245
2022-11-09T12:27:37.858Z,256
2022-11-09T12:29:39.625Z,256
2022-11-09T12:31:40.570Z,257
2022-11-09T12:33:43.368Z,257
2022-11-09T12:37:44.729Z,257
2022-11-09T12:39:46.181Z,158
2022-11-09T12:43:48.762Z,270
2022-11-09T12:45:50.096Z,271
2022-11-09T12:47:51.773Z,224
2022-11-09T12:49:52.781Z,224
2022-11-09T12:55:56.030Z,208
2022-11-09T12:58:00.843Z,195
2022-11-09T12:59:58.442Z,255
2022-11-09T13:01:59.997Z,256
2022-11-09T13:06:02.726Z,269
2022-11-09T13:08:03.715Z,257
2022-11-09T13:10:05.534Z,228
2022-11-09T13:12:06.337Z,230
2022-11-09T13:16:08.679Z,242
2022-11-09T13:18:09.600Z,242
2022-11-09T13:22:12.972Z,242
2022-11-09T13:24:16.250Z,239
2022-11-09T13:26:15.574Z,238
2022-11-09T13:28:16.449Z,238
2022-11-09T13:30:17.887Z,248
2022-11-09T13:32:19.484Z,264
2022-11-09T13:34:21.331Z,267
2022-11-09T13:36:22.547Z,266
2022-11-09T13:38:23.558Z,266
2022-11-09T13:40:24.672Z,266
2022-11-09T13:42:25.656Z,244
2022-11-09T13:44:26.759Z,225
2022-11-09T13:48:28.955Z,250
2022-11-09T13:50:30.190Z,360
2022-11-09T13:52:31.385Z,211
2022-11-09T13:54:32.896Z,248
2022-11-09T13:58:35.486Z,248
2022-11-09T14:00:36.920Z,252
2022-11-09T14:02:37.844Z,252
2022-11-09T14:04:39.332Z,252
2022-11-09T14:08:41.946Z,252
2022-11-09T14:09:25.727Z,222
2022-11-09T14:13:28.605Z,209
2022-11-09T14:15:30.475Z,209
2022-11-09T14:19:32.830Z,252
2022-11-09T14:21:33.649Z,252
2022-11-09T14:23:34.655Z,252
2022-11-09T14:25:36.048Z,251
2022-11-09T14:31:44.148Z,220
2022-11-09T14:33:41.949Z,220
2022-11-09T14:35:43.464Z,220
2022-11-09T14:37:45.322Z,226
2022-11-09T14:41:48.468Z,224
2022-11-09T14:45:51.398Z,230
2022-11-09T14:47:52.530Z,230
2022-11-09T14:51:55.022Z,166
2022-11-09T14:53:56.028Z,192
2022-11-09T14:55:57.368Z,193
2022-11-09T14:57:58.378Z,193
2022-11-09T14:59:59.427Z,193
2022-11-09T15:02:01.007Z,210
2022-11-09T15:04:02.682Z,228
2022-11-09T15:06:03.551Z,218
2022-11-09T15:08:05.420Z,219
2022-11-09T15:10:06.695Z,219
2022-11-09T15:12:07.689Z,219
2022-11-09T15:14:09.427Z,229
2022-11-09T15:16:10.453Z,229
2022-11-09T15:18:12.150Z,229
2022-11-09T15:20:13.079Z,229
2022-11-09T15:24:16.676Z,227
2022-11-09T15:26:18.005Z,217
2022-11-09T15:28:19.614Z,229
2022-11-09T15:30:20.472Z,229
2022-11-09T15:34:22.265Z,198
2022-11-09T15:36:23.244Z,206
2022-11-09T15:38:24.519Z,207
2022-11-09T15:40:25.972Z,206
2022-11-09T15:44:29.395Z,271
2022-11-09T15:46:30.442Z,233
2022-11-09T15:48:31.896Z,186
2022-11-09T15:50:32.905Z,360
2022-11-09T15:54:36.172Z,360
2022-11-09T15:56:37.937Z,360
2022-11-09T15:58:39.621Z,180
2022-11-09T16:00:41.596Z,181
2022-11-09T16:02:43.350Z,181
2022-11-09T16:06:46.871Z,193
2022-11-09T16:08:47.310Z,186
2022-11-09T16:10:48.639Z,234
2022-11-09T16:12:50.521Z,177
2022-11-09T16:16:53.398Z,181
2022-11-09T16:18:55.175Z,180
2022-11-09T16:22:58.168Z,215
2022-11-09T16:27:01.452Z,220
2022-11-09T16:29:02.445Z,220
2022-11-09T16:33:04.787Z,204
2022-11-09T16:37:07.799Z,215
2022-11-09T16:39:09.017Z,158
2022-11-09T16:43:11.454Z,172
2022-11-09T16:45:12.944Z,216
2022-11-09T16:47:14.711Z,231
2022-11-09T16:49:16.198Z,263
2022-11-09T16:55:21.171Z,242
2022-11-09T16:57:22.624Z,242
2022-11-09T16:59:24.485Z,242
2022-11-09T17:01:25.623Z,242
2022-11-09T17:05:27.880Z,242
2022-11-09T17:07:28.784Z,223
2022-11-09T17:09:30.588Z,240
2022-11-09T17:11:32.327Z,242
2022-11-09T17:15:34.192Z,242
2022-11-09T17:17:36.038Z,242
2022-11-09T17:19:36.932Z,242
2022-11-09T17:21:37.979Z,243
2022-11-09T17:23:39.669Z,208
2022-11-09T17:25:41.508Z,209
2022-11-09T17:27:42.561Z,209
2022-11-09T17:29:43.656Z,259
2022-11-09T17:31:45.398Z,259
2022-11-09T17:33:47.207Z,266
2022-11-09T17:35:48.647Z,285
2022-11-09T17:37:50.367Z,285
2022-11-09T17:39:51.780Z,247
2022-11-09T17:41:52.783Z,248
2022-11-09T17:43:54.074Z,248
2022-11-09T17:47:57.188Z,248
2022-11-09T17:49:58.893Z,248
2022-11-09T17:52:00.183Z,247
2022-11-09T17:54:01.164Z,247
2022-11-09T17:58:03.822Z,247
2022-11-09T18:00:05.669Z,243
2022-11-09T18:02:06.664Z,250
2022-11-09T18:04:07.885Z,249
2022-11-09T18:08:10.782Z,197
2022-11-09T18:10:12.058Z,200
2022-11-09T18:12:13.693Z,200
2022-11-09T18:14:14.749Z,260
2022-11-09T18:20:19.645Z,260
2022-11-09T18:22:21.221Z,201
2022-11-09T18:24:22.664Z,206
2022-11-09T18:26:23.643Z,206
2022-11-09T18:28:25.016Z,206
2022-11-09T18:30:26.728Z,206
2022-11-09T18:32:28.561Z,206
2022-11-09T18:36:30.980Z,206
2022-11-09T18:40:34.366Z,206
2022-11-09T18:42:35.533Z,206
2022-11-09T18:46:38.019Z,206
2022-11-09T18:48:39.758Z,206
2022-11-09T18:50:48.819Z,206
2022-11-09T18:52:42.229Z,206
2022-11-09T18:54:44.052Z,206
2022-11-09T18:56:44.856Z,206
2022-11-09T18:58:46.740Z,206
2022-11-09T19:00:48.589Z,206
2022-11-09T19:02:49.837Z,206
2022-11-09T19:04:51.356Z,206
2022-11-09T19:06:53.055Z,206
2022-11-09T19:08:53.944Z,206
2022-11-09T19:10:55.690Z,206
2022-11-09T19:12:57.247Z,206
2022-11-09T19:14:58.397Z,206
2022-11-09T19:19:00.419Z,206
2022-11-09T19:21:02.028Z,206
2022-11-09T19:23:03.316Z,206
2022-11-09T19:25:05.197Z,206
2022-11-09T19:29:08.452Z,206
2022-11-09T19:31:09.671Z,206
2022-11-09T19:35:12.266Z,237
2022-11-09T19:39:14.401Z,237
2022-11-09T19:41:16.204Z,237
2022-11-09T19:43:17.791Z,261
2022-11-09T19:45:18.623Z,261
2022-11-09T19:51:21.582Z,238
2022-11-09T19:53:23.254Z,269
2022-11-09T19:55:25.105Z,235
2022-11-09T19:57:26.907Z,233
2022-11-09T20:01:29.992Z,233
2022-11-09T20:03:31.230Z,233
2022-11-09T20:05:32.161Z,233
2022-11-09T20:07:33.276Z,233
2022-11-09T20:11:35.794Z,242
2022-11-09T20:13:37.031Z,242
2022-11-09T20:17:39.624Z,253
2022-11-09T20:21:42.829Z,258
2022-11-09T20:23:44.222Z,269
2022-11-09T20:27:46.897Z,269
2022-11-09T20:31:49.487Z,269
2022-11-09T20:33:50.998Z,269
2022-11-09T20:37:53.757Z,269
2022-11-09T20:39:54.782Z,269
2022-11-09T20:41:55.877Z,251
2022-11-09T20:43:57.571Z,203
2022-11-09T20:50:01.847Z,203
2022-11-09T20:52:03.241Z,203
2022-11-09T20:54:07.399Z,203
2022-11-09T20:56:06.221Z,203
2022-11-09T20:58:51.334Z,203
2022-11-09T21:00:52.601Z,203
2022-11-09T21:04:55.870Z,203
2022-11-09T21:06:57.411Z,203
2022-11-09T21:08:59.056Z,238
2022-11-09T21:11:00.785Z,232
2022-11-09T21:13:10.883Z,232
2022-11-09T21:15:03.025Z,232
2022-11-09T21:17:04.498Z,232
2022-11-09T21:19:05.433Z,232
2022-11-09T21:21:06.959Z,232
2022-11-09T21:23:08.201Z,232
2022-11-09T21:25:09.981Z,232
2022-11-09T21:27:11.469Z,232
2022-11-09T21:29:12.547Z,232
2022-11-09T21:31:14.305Z,232
2022-11-09T21:33:15.649Z,232
2022-11-09T21:37:19.308Z,232
2022-11-09T21:39:20.208Z,232
2022-11-09T21:41:21.527Z,232
2022-11-09T21:43:23.627Z,232
2022-11-09T21:47:25.829Z,232
2022-11-09T21:49:27.208Z,232
2022-11-09T21:51:28.546Z,225
2022-11-09T21:53:29.526Z,227
2022-11-09T21:57:32.609Z,227
2022-11-09T21:59:33.693Z,227
2022-11-09T22:01:35.301Z,227
2022-11-09T22:03:36.351Z,227
2022-11-09T22:07:38.776Z,227
2022-11-09T22:10:06.336Z,227
2022-11-09T22:13:42.047Z,227
2022-11-09T22:15:43.961Z,227
2022-11-09T22:17:45.346Z,227
2022-11-09T22:19:46.644Z,227
2022-11-09T22:23:50.135Z,227
2022-11-09T22:25:51.124Z,227
2022-11-09T22:29:54.131Z,227
2022-11-09T22:31:55.615Z,227
2022-11-09T22:35:58.368Z,224
2022-11-09T22:40:00.869Z,224
2022-11-09T22:42:02.462Z,224
2022-11-09T22:46:05.395Z,224
2022-11-09T22:50:08.281Z,224
2022-11-09T22:52:09.667Z,224
2022-11-09T22:54:10.716Z,256
2022-11-09T22:56:11.896Z,256
2022-11-09T22:58:13.641Z,256
2022-11-09T23:00:15.063Z,256
2022-11-09T23:02:16.234Z,256
2022-11-09T23:04:17.859Z,257
2022-11-09T23:06:19.140Z,257
2022-11-09T23:08:20.078Z,257
2022-11-09T23:10:21.002Z,257
2022-11-09T23:12:22.064Z,257
2022-11-09T23:14:23.697Z,257
2022-11-09T23:18:26.101Z,257
2022-11-09T23:20:31.287Z,257
2022-11-09T23:24:30.227Z,257
2022-11-09T23:28:32.566Z,257
2022-11-09T23:30:34.231Z,257
2022-11-09T23:32:36.159Z,257
2022-11-09T23:34:37.296Z,257
2022-11-09T23:36:38.396Z,257
2022-11-09T23:38:39.935Z,257
2022-11-09T23:40:41.152Z,257
2022-11-09T23:42:42.140Z,257
2022-11-09T23:44:43.798Z,257
2022-11-09T23:46:45.079Z,257
2022-11-09T23:48:46.234Z,257
2022-11-09T23:50:47.929Z,257
2022-11-09T23:52:49.652Z,257
2022-11-09T23:54:50.865Z,257
2022-11-09T23:56:52.048Z,257
